sensor_id;sensor_type;location;lat;lon;timestamp;temperature;humidity
66726;HTU21D;53638;51.062;5.804;2023-02-03T00:01:22;10.06;118.99
66726;HTU21D;53638;51.062;5.804;2023-02-03T00:04:01;10.20;118.99
66726;HTU21D;53638;51.062;5.804;2023-02-03T00:06:27;10.19;118.99
66726;HTU21D;53638;51.062;5.804;2023-02-03T00:09:11;10.11;118.99
66726;HTU21D;53638;51.062;5.804;2023-02-03T00:11:37;10.24;118.99
66726;HTU21D;53638;51.062;5.804;2023-02-03T00:14:03;10.21;118.99
66726;HTU21D;53638;51.062;5.804;2023-02-03T00:16:30;10.15;118.99
66726;HTU21D;53638;51.062;5.804;2023-02-03T00:18:56;10.24;118.99
66726;HTU21D;53638;51.062;5.804;2023-02-03T00:21:22;10.22;118.99
66726;HTU21D;53638;51.062;5.804;2023-02-03T00:23:48;10.15;118.99
66726;HTU21D;53638;51.062;5.804;2023-02-03T00:26:16;10.15;118.99
66726;HTU21D;53638;51.062;5.804;2023-02-03T00:28:44;10.28;118.99
66726;HTU21D;53638;51.062;5.804;2023-02-03T00:31:15;10.15;118.99
66726;HTU21D;53638;51.062;5.804;2023-02-03T00:33:41;10.14;118.99
66726;HTU21D;53638;51.062;5.804;2023-02-03T00:36:08;10.10;118.99
66726;HTU21D;53638;51.062;5.804;2023-02-03T00:38:35;10.20;118.99
66726;HTU21D;53638;51.062;5.804;2023-02-03T00:41:01;10.25;118.99
66726;HTU21D;53638;51.062;5.804;2023-02-03T00:43:27;10.20;118.99
66726;HTU21D;53638;51.062;5.804;2023-02-03T00:45:53;10.29;118.99
66726;HTU21D;53638;51.062;5.804;2023-02-03T00:48:19;10.23;118.99
66726;HTU21D;53638;51.062;5.804;2023-02-03T00:50:54;10.24;118.99
66726;HTU21D;53638;51.062;5.804;2023-02-03T00:53:20;10.23;118.99
66726;HTU21D;53638;51.062;5.804;2023-02-03T00:55:46;10.16;118.99
66726;HTU21D;53638;51.062;5.804;2023-02-03T00:58:15;10.14;118.99
66726;HTU21D;53638;51.062;5.804;2023-02-03T01:00:41;10.19;118.99
66726;HTU21D;53638;51.062;5.804;2023-02-03T01:03:07;10.11;118.99
66726;HTU21D;53638;51.062;5.804;2023-02-03T01:05:33;10.13;118.99
66726;HTU21D;53638;51.062;5.804;2023-02-03T01:08:00;10.11;118.99
66726;HTU21D;53638;51.062;5.804;2023-02-03T01:10:27;10.24;118.99
66726;HTU21D;53638;51.062;5.804;2023-02-03T01:12:53;10.13;118.99
66726;HTU21D;53638;51.062;5.804;2023-02-03T01:15:19;10.09;118.99
66726;HTU21D;53638;51.062;5.804;2023-02-03T01:17:45;10.18;118.99
66726;HTU21D;53638;51.062;5.804;2023-02-03T01:20:12;10.24;118.99
66726;HTU21D;53638;51.062;5.804;2023-02-03T01:22:39;10.08;118.99
66726;HTU21D;53638;51.062;5.804;2023-02-03T01:25:07;10.12;118.99
66726;HTU21D;53638;51.062;5.804;2023-02-03T01:27:33;10.19;118.99
66726;HTU21D;53638;51.062;5.804;2023-02-03T01:29:59;10.19;118.99
66726;HTU21D;53638;51.062;5.804;2023-02-03T01:32:25;10.16;118.99
66726;HTU21D;53638;51.062;5.804;2023-02-03T01:34:51;10.15;118.99
66726;HTU21D;53638;51.062;5.804;2023-02-03T01:37:17;10.03;118.99
66726;HTU21D;53638;51.062;5.804;2023-02-03T01:39:46;10.08;118.99
66726;HTU21D;53638;51.062;5.804;2023-02-03T01:42:14;10.00;118.99
66726;HTU21D;53638;51.062;5.804;2023-02-03T01:50:17;10.10;118.99
66726;HTU21D;53638;51.062;5.804;2023-02-03T01:52:48;10.25;118.99
66726;HTU21D;53638;51.062;5.804;2023-02-03T01:55:20;10.27;118.99
66726;HTU21D;53638;51.062;5.804;2023-02-03T01:58:11;10.24;118.99
66726;HTU21D;53638;51.062;5.804;2023-02-03T02:01:04;10.07;118.99
66726;HTU21D;53638;51.062;5.804;2023-02-03T02:03:37;10.14;118.99
66726;HTU21D;53638;51.062;5.804;2023-02-03T02:06:11;10.19;118.99
66726;HTU21D;53638;51.062;5.804;2023-02-03T02:08:41;10.24;118.99
66726;HTU21D;53638;51.062;5.804;2023-02-03T02:11:09;10.08;118.99
66726;HTU21D;53638;51.062;5.804;2023-02-03T02:13:36;10.22;118.99
66726;HTU21D;53638;51.062;5.804;2023-02-03T02:16:14;10.15;118.99
66726;HTU21D;53638;51.062;5.804;2023-02-03T02:21:29;10.08;118.99
66726;HTU21D;53638;51.062;5.804;2023-02-03T02:35:36;10.25;118.99
66726;HTU21D;53638;51.062;5.804;2023-02-03T02:44:07;10.22;118.99
66726;HTU21D;53638;51.062;5.804;2023-02-03T02:46:38;10.25;118.99
66726;HTU21D;53638;51.062;5.804;2023-02-03T02:49:18;10.20;118.99
66726;HTU21D;53638;51.062;5.804;2023-02-03T02:52:13;10.24;118.99
66726;HTU21D;53638;51.062;5.804;2023-02-03T02:54:47;10.19;118.99
66726;HTU21D;53638;51.062;5.804;2023-02-03T02:57:19;10.24;118.99
66726;HTU21D;53638;51.062;5.804;2023-02-03T02:59:48;10.27;118.99
66726;HTU21D;53638;51.062;5.804;2023-02-03T03:02:14;10.25;118.99
66726;HTU21D;53638;51.062;5.804;2023-02-03T03:04:42;10.16;118.99
66726;HTU21D;53638;51.062;5.804;2023-02-03T03:07:17;10.09;118.99
66726;HTU21D;53638;51.062;5.804;2023-02-03T03:09:50;10.34;118.99
66726;HTU21D;53638;51.062;5.804;2023-02-03T03:12:44;10.16;118.99
66726;HTU21D;53638;51.062;5.804;2023-02-03T03:15:30;10.20;118.99
66726;HTU21D;53638;51.062;5.804;2023-02-03T03:18:04;10.29;118.99
66726;HTU21D;53638;51.062;5.804;2023-02-03T03:20:49;10.26;118.99
66726;HTU21D;53638;51.062;5.804;2023-02-03T03:23:25;10.27;118.99
66726;HTU21D;53638;51.062;5.804;2023-02-03T03:26:14;10.25;118.99
66726;HTU21D;53638;51.062;5.804;2023-02-03T03:28:48;10.27;118.99
66726;HTU21D;53638;51.062;5.804;2023-02-03T03:31:18;10.27;118.99
66726;HTU21D;53638;51.062;5.804;2023-02-03T03:33:46;10.21;118.99
66726;HTU21D;53638;51.062;5.804;2023-02-03T03:36:25;10.23;118.99
66726;HTU21D;53638;51.062;5.804;2023-02-03T03:39:02;10.20;118.99
66726;HTU21D;53638;51.062;5.804;2023-02-03T03:41:42;10.26;118.99
66726;HTU21D;53638;51.062;5.804;2023-02-03T03:44:42;10.22;118.99
66726;HTU21D;53638;51.062;5.804;2023-02-03T03:47:23;10.31;118.99
66726;HTU21D;53638;51.062;5.804;2023-02-03T03:49:53;10.27;118.99
66726;HTU21D;53638;51.062;5.804;2023-02-03T03:52:36;10.28;118.99
66726;HTU21D;53638;51.062;5.804;2023-02-03T03:55:07;10.30;118.99
66726;HTU21D;53638;51.062;5.804;2023-02-03T03:57:41;10.25;118.99
66726;HTU21D;53638;51.062;5.804;2023-02-03T04:00:39;10.16;118.99
66726;HTU21D;53638;51.062;5.804;2023-02-03T04:03:13;10.14;118.99
66726;HTU21D;53638;51.062;5.804;2023-02-03T04:05:41;10.31;118.99
66726;HTU21D;53638;51.062;5.804;2023-02-03T04:08:07;10.25;118.99
66726;HTU21D;53638;51.062;5.804;2023-02-03T04:10:43;10.21;118.99
66726;HTU21D;53638;51.062;5.804;2023-02-03T04:13:34;10.21;118.99
66726;HTU21D;53638;51.062;5.804;2023-02-03T04:16:00;10.30;118.99
66726;HTU21D;53638;51.062;5.804;2023-02-03T04:18:26;10.23;118.99
66726;HTU21D;53638;51.062;5.804;2023-02-03T04:20:53;10.26;118.99
66726;HTU21D;53638;51.062;5.804;2023-02-03T04:23:26;10.24;118.99
66726;HTU21D;53638;51.062;5.804;2023-02-03T04:25:51;10.18;118.99
66726;HTU21D;53638;51.062;5.804;2023-02-03T04:28:18;10.21;118.99
66726;HTU21D;53638;51.062;5.804;2023-02-03T04:30:43;10.20;118.99
66726;HTU21D;53638;51.062;5.804;2023-02-03T04:33:16;10.20;118.99
66726;HTU21D;53638;51.062;5.804;2023-02-03T04:35:45;10.22;118.99
66726;HTU21D;53638;51.062;5.804;2023-02-03T04:38:11;10.30;118.99
66726;HTU21D;53638;51.062;5.804;2023-02-03T04:40:39;10.33;118.99
66726;HTU21D;53638;51.062;5.804;2023-02-03T04:43:08;10.20;118.99
66726;HTU21D;53638;51.062;5.804;2023-02-03T04:45:36;10.15;118.99
66726;HTU21D;53638;51.062;5.804;2023-02-03T04:48:30;10.28;118.99
66726;HTU21D;53638;51.062;5.804;2023-02-03T04:51:04;10.35;118.99
66726;HTU21D;53638;51.062;5.804;2023-02-03T04:53:32;10.33;118.99
66726;HTU21D;53638;51.062;5.804;2023-02-03T04:56:00;10.30;118.99
66726;HTU21D;53638;51.062;5.804;2023-02-03T04:58:28;10.34;118.99
66726;HTU21D;53638;51.062;5.804;2023-02-03T05:00:55;10.34;118.99
66726;HTU21D;53638;51.062;5.804;2023-02-03T05:03:27;10.31;118.99
66726;HTU21D;53638;51.062;5.804;2023-02-03T05:05:55;10.31;118.99
66726;HTU21D;53638;51.062;5.804;2023-02-03T05:08:21;10.28;118.99
66726;HTU21D;53638;51.062;5.804;2023-02-03T05:10:47;10.22;118.99
66726;HTU21D;53638;51.062;5.804;2023-02-03T05:13:16;10.23;118.99
66726;HTU21D;53638;51.062;5.804;2023-02-03T05:15:42;10.38;118.99
66726;HTU21D;53638;51.062;5.804;2023-02-03T05:18:08;10.33;118.99
66726;HTU21D;53638;51.062;5.804;2023-02-03T05:23:51;10.22;118.99
66726;HTU21D;53638;51.062;5.804;2023-02-03T05:26:17;10.25;118.99
66726;HTU21D;53638;51.062;5.804;2023-02-03T05:29:08;10.20;118.99
66726;HTU21D;53638;51.062;5.804;2023-02-03T05:31:36;10.30;118.99
66726;HTU21D;53638;51.062;5.804;2023-02-03T05:34:04;10.31;118.99
66726;HTU21D;53638;51.062;5.804;2023-02-03T05:36:30;10.38;118.99
66726;HTU21D;53638;51.062;5.804;2023-02-03T05:42:12;10.31;118.99
66726;HTU21D;53638;51.062;5.804;2023-02-03T05:44:41;10.36;118.99
66726;HTU21D;53638;51.062;5.804;2023-02-03T05:47:07;10.28;118.99
66726;HTU21D;53638;51.062;5.804;2023-02-03T05:49:34;10.37;118.99
66726;HTU21D;53638;51.062;5.804;2023-02-03T05:52:25;10.30;118.99
66726;HTU21D;53638;51.062;5.804;2023-02-03T05:54:51;10.29;118.99
66726;HTU21D;53638;51.062;5.804;2023-02-03T05:57:21;10.34;118.99
66726;HTU21D;53638;51.062;5.804;2023-02-03T05:59:47;10.25;118.99
66726;HTU21D;53638;51.062;5.804;2023-02-03T06:02:14;10.23;118.99
66726;HTU21D;53638;51.062;5.804;2023-02-03T06:04:40;10.31;118.99
66726;HTU21D;53638;51.062;5.804;2023-02-03T06:07:06;10.29;118.99
66726;HTU21D;53638;51.062;5.804;2023-02-03T06:09:32;10.28;118.99
66726;HTU21D;53638;51.062;5.804;2023-02-03T06:12:24;10.21;118.99
66726;HTU21D;53638;51.062;5.804;2023-02-03T06:15:10;10.13;118.99
66726;HTU21D;53638;51.062;5.804;2023-02-03T06:17:42;10.21;118.99
66726;HTU21D;53638;51.062;5.804;2023-02-03T06:20:12;10.24;118.99
66726;HTU21D;53638;51.062;5.804;2023-02-03T06:22:39;10.24;118.99
66726;HTU21D;53638;51.062;5.804;2023-02-03T06:25:08;10.22;118.99
66726;HTU21D;53638;51.062;5.804;2023-02-03T06:27:38;10.27;118.99
66726;HTU21D;53638;51.062;5.804;2023-02-03T06:30:19;10.35;118.99
66726;HTU21D;53638;51.062;5.804;2023-02-03T06:32:55;10.36;118.99
66726;HTU21D;53638;51.062;5.804;2023-02-03T06:35:27;10.39;118.99
66726;HTU21D;53638;51.062;5.804;2023-02-03T06:37:53;10.24;118.99
66726;HTU21D;53638;51.062;5.804;2023-02-03T06:40:19;10.15;118.99
66726;HTU21D;53638;51.062;5.804;2023-02-03T06:42:46;10.16;118.99
66726;HTU21D;53638;51.062;5.804;2023-02-03T06:45:18;10.26;118.99
66726;HTU21D;53638;51.062;5.804;2023-02-03T06:47:44;10.27;118.99
66726;HTU21D;53638;51.062;5.804;2023-02-03T06:50:13;10.34;118.99
66726;HTU21D;53638;51.062;5.804;2023-02-03T06:52:40;10.30;118.99
66726;HTU21D;53638;51.062;5.804;2023-02-03T06:55:11;10.34;118.99
66726;HTU21D;53638;51.062;5.804;2023-02-03T06:57:59;10.30;118.99
66726;HTU21D;53638;51.062;5.804;2023-02-03T07:00:25;10.26;118.99
66726;HTU21D;53638;51.062;5.804;2023-02-03T07:02:53;10.36;118.99
66726;HTU21D;53638;51.062;5.804;2023-02-03T07:05:20;10.38;118.99
66726;HTU21D;53638;51.062;5.804;2023-02-03T07:08:11;10.31;118.99
66726;HTU21D;53638;51.062;5.804;2023-02-03T07:10:37;10.30;118.99
66726;HTU21D;53638;51.062;5.804;2023-02-03T07:13:05;10.29;118.99
66726;HTU21D;53638;51.062;5.804;2023-02-03T07:15:40;10.29;118.99
66726;HTU21D;53638;51.062;5.804;2023-02-03T07:18:06;10.26;118.99
66726;HTU21D;53638;51.062;5.804;2023-02-03T07:20:36;10.24;118.99
66726;HTU21D;53638;51.062;5.804;2023-02-03T07:23:05;10.43;118.99
66726;HTU21D;53638;51.062;5.804;2023-02-03T07:25:32;10.33;118.99
66726;HTU21D;53638;51.062;5.804;2023-02-03T07:28:11;10.46;118.99
66726;HTU21D;53638;51.062;5.804;2023-02-03T07:31:24;10.27;118.99
66726;HTU21D;53638;51.062;5.804;2023-02-03T07:34:24;10.30;118.99
66726;HTU21D;53638;51.062;5.804;2023-02-03T07:37:31;10.18;118.99
66726;HTU21D;53638;51.062;5.804;2023-02-03T07:39:57;10.12;118.99
66726;HTU21D;53638;51.062;5.804;2023-02-03T07:42:23;10.11;118.99
66726;HTU21D;53638;51.062;5.804;2023-02-03T07:44:50;10.00;118.99
66726;HTU21D;53638;51.062;5.804;2023-02-03T07:47:16;10.21;118.99
66726;HTU21D;53638;51.062;5.804;2023-02-03T07:49:42;10.16;118.99
66726;HTU21D;53638;51.062;5.804;2023-02-03T07:52:08;10.12;118.99
66726;HTU21D;53638;51.062;5.804;2023-02-03T07:54:34;10.28;118.99
66726;HTU21D;53638;51.062;5.804;2023-02-03T07:57:00;10.31;118.99
66726;HTU21D;53638;51.062;5.804;2023-02-03T07:59:26;10.23;118.99
66726;HTU21D;53638;51.062;5.804;2023-02-03T08:01:51;10.25;118.99
66726;HTU21D;53638;51.062;5.804;2023-02-03T08:04:21;10.28;118.99
66726;HTU21D;53638;51.062;5.804;2023-02-03T08:06:47;10.30;118.99
66726;HTU21D;53638;51.062;5.804;2023-02-03T08:09:14;10.42;118.99
66726;HTU21D;53638;51.062;5.804;2023-02-03T08:11:40;10.48;118.99
66726;HTU21D;53638;51.062;5.804;2023-02-03T08:14:06;10.38;118.99
66726;HTU21D;53638;51.062;5.804;2023-02-03T08:16:32;10.42;118.99
66726;HTU21D;53638;51.062;5.804;2023-02-03T08:18:58;10.33;118.99
66726;HTU21D;53638;51.062;5.804;2023-02-03T08:21:24;10.37;118.99
66726;HTU21D;53638;51.062;5.804;2023-02-03T08:23:50;10.40;118.99
66726;HTU21D;53638;51.062;5.804;2023-02-03T08:26:15;10.43;118.99
66726;HTU21D;53638;51.062;5.804;2023-02-03T08:28:41;10.36;118.99
66726;HTU21D;53638;51.062;5.804;2023-02-03T08:31:11;10.38;118.99
66726;HTU21D;53638;51.062;5.804;2023-02-03T08:33:37;10.43;118.99
66726;HTU21D;53638;51.062;5.804;2023-02-03T08:36:04;10.40;118.99
66726;HTU21D;53638;51.062;5.804;2023-02-03T08:38:31;10.40;118.99
66726;HTU21D;53638;51.062;5.804;2023-02-03T08:40:57;10.34;118.99
66726;HTU21D;53638;51.062;5.804;2023-02-03T08:43:23;10.33;118.99
66726;HTU21D;53638;51.062;5.804;2023-02-03T08:45:49;10.37;118.99
66726;HTU21D;53638;51.062;5.804;2023-02-03T08:48:14;10.29;118.99
66726;HTU21D;53638;51.062;5.804;2023-02-03T08:50:41;10.38;118.99
66726;HTU21D;53638;51.062;5.804;2023-02-03T08:53:09;10.37;118.99
66726;HTU21D;53638;51.062;5.804;2023-02-03T08:55:38;10.46;118.99
66726;HTU21D;53638;51.062;5.804;2023-02-03T08:58:04;10.40;118.99
66726;HTU21D;53638;51.062;5.804;2023-02-03T09:00:34;10.55;118.99
66726;HTU21D;53638;51.062;5.804;2023-02-03T09:03:25;10.57;118.99
66726;HTU21D;53638;51.062;5.804;2023-02-03T09:05:51;10.43;118.99
66726;HTU21D;53638;51.062;5.804;2023-02-03T09:08:42;10.43;118.99
66726;HTU21D;53638;51.062;5.804;2023-02-03T09:11:26;10.43;118.99
66726;HTU21D;53638;51.062;5.804;2023-02-03T09:13:52;10.53;118.99
66726;HTU21D;53638;51.062;5.804;2023-02-03T09:16:37;10.49;118.99
66726;HTU21D;53638;51.062;5.804;2023-02-03T09:19:09;10.41;118.99
66726;HTU21D;53638;51.062;5.804;2023-02-03T09:21:44;10.42;118.99
66726;HTU21D;53638;51.062;5.804;2023-02-03T09:24:10;10.44;118.99
66726;HTU21D;53638;51.062;5.804;2023-02-03T09:27:01;10.36;118.99
66726;HTU21D;53638;51.062;5.804;2023-02-03T09:29:27;10.29;118.99
66726;HTU21D;53638;51.062;5.804;2023-02-03T09:32:04;10.31;118.99
66726;HTU21D;53638;51.062;5.804;2023-02-03T09:41:00;10.24;118.99
66726;HTU21D;53638;51.062;5.804;2023-02-03T09:47:27;10.08;118.99
66726;HTU21D;53638;51.062;5.804;2023-02-03T09:50:19;10.08;118.99
66726;HTU21D;53638;51.062;5.804;2023-02-03T09:53:20;9.96;118.99
66726;HTU21D;53638;51.062;5.804;2023-02-03T09:56:28;9.98;118.99
66726;HTU21D;53638;51.062;5.804;2023-02-03T09:59:54;9.98;118.99
66726;HTU21D;53638;51.062;5.804;2023-02-03T10:18:46;9.66;118.99
66726;HTU21D;53638;51.062;5.804;2023-02-03T10:21:42;9.65;118.99
66726;HTU21D;53638;51.062;5.804;2023-02-03T10:24:18;9.72;118.99
66726;HTU21D;53638;51.062;5.804;2023-02-03T10:26:45;9.63;118.99
66726;HTU21D;53638;51.062;5.804;2023-02-03T10:29:35;9.71;118.99
66726;HTU21D;53638;51.062;5.804;2023-02-03T10:32:08;9.71;118.99
66726;HTU21D;53638;51.062;5.804;2023-02-03T10:34:36;9.70;118.99
66726;HTU21D;53638;51.062;5.804;2023-02-03T10:39:47;9.74;118.99
66726;HTU21D;53638;51.062;5.804;2023-02-03T10:42:15;9.80;118.99
66726;HTU21D;53638;51.062;5.804;2023-02-03T10:44:50;9.97;118.99
66726;HTU21D;53638;51.062;5.804;2023-02-03T10:47:26;9.97;118.99
66726;HTU21D;53638;51.062;5.804;2023-02-03T10:49:56;10.06;118.99
66726;HTU21D;53638;51.062;5.804;2023-02-03T10:52:30;10.07;118.99
66726;HTU21D;53638;51.062;5.804;2023-02-03T10:54:57;10.22;118.99
66726;HTU21D;53638;51.062;5.804;2023-02-03T10:57:27;10.25;118.99
66726;HTU21D;53638;51.062;5.804;2023-02-03T11:00:06;10.27;118.99
66726;HTU21D;53638;51.062;5.804;2023-02-03T11:02:33;10.41;118.99
66726;HTU21D;53638;51.062;5.804;2023-02-03T11:05:19;10.36;118.99
66726;HTU21D;53638;51.062;5.804;2023-02-03T11:07:46;10.26;118.99
66726;HTU21D;53638;51.062;5.804;2023-02-03T11:13:20;10.45;118.99
66726;HTU21D;53638;51.062;5.804;2023-02-03T11:15:59;10.65;118.99
66726;HTU21D;53638;51.062;5.804;2023-02-03T11:18:37;10.60;118.99
66726;HTU21D;53638;51.062;5.804;2023-02-03T11:21:06;10.65;118.99
66726;HTU21D;53638;51.062;5.804;2023-02-03T11:23:33;10.80;118.99
66726;HTU21D;53638;51.062;5.804;2023-02-03T11:26:10;10.78;118.99
66726;HTU21D;53638;51.062;5.804;2023-02-03T11:28:41;10.84;118.99
66726;HTU21D;53638;51.062;5.804;2023-02-03T11:31:17;10.84;118.99
66726;HTU21D;53638;51.062;5.804;2023-02-03T11:33:50;10.86;118.99
66726;HTU21D;53638;51.062;5.804;2023-02-03T11:36:17;10.92;118.99
66726;HTU21D;53638;51.062;5.804;2023-02-03T11:38:44;10.87;118.99
66726;HTU21D;53638;51.062;5.804;2023-02-03T11:41:16;11.00;118.99
66726;HTU21D;53638;51.062;5.804;2023-02-03T11:43:42;10.93;118.99
66726;HTU21D;53638;51.062;5.804;2023-02-03T11:46:09;11.08;118.99
66726;HTU21D;53638;51.062;5.804;2023-02-03T11:48:38;11.05;118.99
66726;HTU21D;53638;51.062;5.804;2023-02-03T11:51:22;10.98;118.99
66726;HTU21D;53638;51.062;5.804;2023-02-03T11:56:59;11.00;118.99
66726;HTU21D;53638;51.062;5.804;2023-02-03T12:05:22;10.98;118.99
66726;HTU21D;53638;51.062;5.804;2023-02-03T12:14:16;10.90;118.99
66726;HTU21D;53638;51.062;5.804;2023-02-03T12:17:20;10.96;118.99
66726;HTU21D;53638;51.062;5.804;2023-02-03T12:26:14;10.94;118.99
66726;HTU21D;53638;51.062;5.804;2023-02-03T12:35:05;11.08;118.99
66726;HTU21D;53638;51.062;5.804;2023-02-03T12:37:51;11.17;118.99
66726;HTU21D;53638;51.062;5.804;2023-02-03T12:40:47;11.00;118.99
66726;HTU21D;53638;51.062;5.804;2023-02-03T12:43:33;11.00;118.99
66726;HTU21D;53638;51.062;5.804;2023-02-03T12:46:52;11.16;118.99
66726;HTU21D;53638;51.062;5.804;2023-02-03T12:49:40;11.00;118.99
66726;HTU21D;53638;51.062;5.804;2023-02-03T12:52:27;11.07;118.99
66726;HTU21D;53638;51.062;5.804;2023-02-03T12:55:37;11.12;118.99
66726;HTU21D;53638;51.062;5.804;2023-02-03T12:58:19;11.14;118.99
66726;HTU21D;53638;51.062;5.804;2023-02-03T13:01:34;11.03;118.99
66726;HTU21D;53638;51.062;5.804;2023-02-03T13:07:32;11.20;118.99
66726;HTU21D;53638;51.062;5.804;2023-02-03T13:10:25;11.25;118.99
66726;HTU21D;53638;51.062;5.804;2023-02-03T13:13:02;11.27;118.99
66726;HTU21D;53638;51.062;5.804;2023-02-03T13:15:42;11.15;118.99
66726;HTU21D;53638;51.062;5.804;2023-02-03T13:20:47;11.27;118.99
66726;HTU21D;53638;51.062;5.804;2023-02-03T13:23:22;11.27;118.99
66726;HTU21D;53638;51.062;5.804;2023-02-03T13:35:49;11.26;118.99
66726;HTU21D;53638;51.062;5.804;2023-02-03T13:38:38;11.43;118.99
66726;HTU21D;53638;51.062;5.804;2023-02-03T13:41:29;11.39;118.99
66726;HTU21D;53638;51.062;5.804;2023-02-03T13:44:11;11.44;118.99
66726;HTU21D;53638;51.062;5.804;2023-02-03T13:46:52;11.41;118.99
66726;HTU21D;53638;51.062;5.804;2023-02-03T13:49:34;11.44;118.99
66726;HTU21D;53638;51.062;5.804;2023-02-03T13:52:24;11.41;118.99
66726;HTU21D;53638;51.062;5.804;2023-02-03T13:55:36;11.38;118.99
66726;HTU21D;53638;51.062;5.804;2023-02-03T13:58:31;11.44;118.99
66726;HTU21D;53638;51.062;5.804;2023-02-03T14:01:27;11.41;118.99
66726;HTU21D;53638;51.062;5.804;2023-02-03T14:03:56;11.38;118.99
66726;HTU21D;53638;51.062;5.804;2023-02-03T14:06:57;11.36;118.99
66726;HTU21D;53638;51.062;5.804;2023-02-03T14:12:16;11.36;118.99
66726;HTU21D;53638;51.062;5.804;2023-02-03T14:22:56;11.44;118.99
66726;HTU21D;53638;51.062;5.804;2023-02-03T14:25:24;11.46;118.99
66726;HTU21D;53638;51.062;5.804;2023-02-03T14:28:01;11.46;118.99
66726;HTU21D;53638;51.062;5.804;2023-02-03T14:30:28;11.53;118.99
66726;HTU21D;53638;51.062;5.804;2023-02-03T14:32:57;11.58;118.99
66726;HTU21D;53638;51.062;5.804;2023-02-03T14:35:32;11.60;118.99
66726;HTU21D;53638;51.062;5.804;2023-02-03T14:38:03;11.62;118.99
66726;HTU21D;53638;51.062;5.804;2023-02-03T14:40:55;11.62;118.99
66726;HTU21D;53638;51.062;5.804;2023-02-03T14:43:34;11.63;118.99
66726;HTU21D;53638;51.062;5.804;2023-02-03T14:46:11;11.61;118.99
66726;HTU21D;53638;51.062;5.804;2023-02-03T14:51:32;11.42;118.99
66726;HTU21D;53638;51.062;5.804;2023-02-03T14:54:30;11.51;118.99
66726;HTU21D;53638;51.062;5.804;2023-02-03T14:59:53;11.47;118.99
66726;HTU21D;53638;51.062;5.804;2023-02-03T15:02:23;11.53;118.99
66726;HTU21D;53638;51.062;5.804;2023-02-03T15:07:47;11.51;118.99
66726;HTU21D;53638;51.062;5.804;2023-02-03T15:10:18;11.39;118.99
66726;HTU21D;53638;51.062;5.804;2023-02-03T15:12:54;11.63;118.99
66726;HTU21D;53638;51.062;5.804;2023-02-03T15:17:52;11.40;118.99
66726;HTU21D;53638;51.062;5.804;2023-02-03T15:22:51;11.47;118.99
66726;HTU21D;53638;51.062;5.804;2023-02-03T15:25:20;11.47;118.99
66726;HTU21D;53638;51.062;5.804;2023-02-03T15:27:46;11.43;118.99
66726;HTU21D;53638;51.062;5.804;2023-02-03T15:32:56;11.52;118.99
66726;HTU21D;53638;51.062;5.804;2023-02-03T15:35:26;11.48;118.99
66726;HTU21D;53638;51.062;5.804;2023-02-03T15:38:01;11.49;118.99
66726;HTU21D;53638;51.062;5.804;2023-02-03T15:40:39;11.47;118.99
66726;HTU21D;53638;51.062;5.804;2023-02-03T15:43:08;11.42;118.99
66726;HTU21D;53638;51.062;5.804;2023-02-03T15:45:43;11.42;118.99
66726;HTU21D;53638;51.062;5.804;2023-02-03T15:48:24;11.28;118.99
66726;HTU21D;53638;51.062;5.804;2023-02-03T15:50:59;11.36;118.99
66726;HTU21D;53638;51.062;5.804;2023-02-03T15:53:32;11.37;118.99
66726;HTU21D;53638;51.062;5.804;2023-02-03T15:56:02;11.39;118.99
66726;HTU21D;53638;51.062;5.804;2023-02-03T15:58:37;11.29;118.99
66726;HTU21D;53638;51.062;5.804;2023-02-03T16:01:12;11.39;118.99
66726;HTU21D;53638;51.062;5.804;2023-02-03T16:03:45;11.33;118.99
66726;HTU21D;53638;51.062;5.804;2023-02-03T16:06:21;11.38;118.99
66726;HTU21D;53638;51.062;5.804;2023-02-03T16:08:50;11.28;118.99
66726;HTU21D;53638;51.062;5.804;2023-02-03T16:11:27;11.31;118.99
66726;HTU21D;53638;51.062;5.804;2023-02-03T16:13:55;11.36;118.99
66726;HTU21D;53638;51.062;5.804;2023-02-03T16:16:34;11.26;118.99
66726;HTU21D;53638;51.062;5.804;2023-02-03T16:19:05;11.23;118.99
66726;HTU21D;53638;51.062;5.804;2023-02-03T16:24:36;11.23;118.99
66726;HTU21D;53638;51.062;5.804;2023-02-03T16:27:29;11.22;118.99
66726;HTU21D;53638;51.062;5.804;2023-02-03T16:33:12;11.16;118.99
66726;HTU21D;53638;51.062;5.804;2023-02-03T16:36:03;11.12;118.99
66726;HTU21D;53638;51.062;5.804;2023-02-03T16:38:53;11.19;118.99
66726;HTU21D;53638;51.062;5.804;2023-02-03T16:41:38;11.20;118.99
66726;HTU21D;53638;51.062;5.804;2023-02-03T16:44:23;11.22;118.99
66726;HTU21D;53638;51.062;5.804;2023-02-03T16:47:27;11.19;118.99
66726;HTU21D;53638;51.062;5.804;2023-02-03T16:50:19;11.20;118.99
66726;HTU21D;53638;51.062;5.804;2023-02-03T16:53:09;11.22;118.99
66726;HTU21D;53638;51.062;5.804;2023-02-03T16:55:41;11.17;118.99
66726;HTU21D;53638;51.062;5.804;2023-02-03T16:58:07;11.25;118.99
66726;HTU21D;53638;51.062;5.804;2023-02-03T17:00:35;11.30;118.99
66726;HTU21D;53638;51.062;5.804;2023-02-03T17:03:04;11.22;118.99
66726;HTU21D;53638;51.062;5.804;2023-02-03T17:05:30;11.19;118.99
66726;HTU21D;53638;51.062;5.804;2023-02-03T17:07:56;11.14;118.99
66726;HTU21D;53638;51.062;5.804;2023-02-03T17:10:22;11.14;118.99
66726;HTU21D;53638;51.062;5.804;2023-02-03T17:12:50;11.12;118.99
66726;HTU21D;53638;51.062;5.804;2023-02-03T17:15:17;11.07;118.99
66726;HTU21D;53638;51.062;5.804;2023-02-03T17:17:43;11.01;118.99
66726;HTU21D;53638;51.062;5.804;2023-02-03T17:20:09;11.00;118.99
66726;HTU21D;53638;51.062;5.804;2023-02-03T17:22:35;11.09;118.99
66726;HTU21D;53638;51.062;5.804;2023-02-03T17:25:04;11.11;118.99
66726;HTU21D;53638;51.062;5.804;2023-02-03T17:27:30;11.08;118.99
66726;HTU21D;53638;51.062;5.804;2023-02-03T17:29:56;11.09;118.99
66726;HTU21D;53638;51.062;5.804;2023-02-03T17:32:21;10.99;118.99
66726;HTU21D;53638;51.062;5.804;2023-02-03T17:34:47;11.01;118.99
66726;HTU21D;53638;51.062;5.804;2023-02-03T17:37:13;11.05;118.99
66726;HTU21D;53638;51.062;5.804;2023-02-03T17:39:40;10.98;118.99
66726;HTU21D;53638;51.062;5.804;2023-02-03T17:42:05;11.02;118.99
66726;HTU21D;53638;51.062;5.804;2023-02-03T17:44:34;11.00;118.99
66726;HTU21D;53638;51.062;5.804;2023-02-03T17:47:00;10.86;118.99
66726;HTU21D;53638;51.062;5.804;2023-02-03T17:49:27;10.95;118.99
66726;HTU21D;53638;51.062;5.804;2023-02-03T17:51:53;10.87;118.99
66726;HTU21D;53638;51.062;5.804;2023-02-03T17:54:19;10.82;118.99
66726;HTU21D;53638;51.062;5.804;2023-02-03T17:56:45;10.83;118.99
66726;HTU21D;53638;51.062;5.804;2023-02-03T17:59:14;10.84;118.99
66726;HTU21D;53638;51.062;5.804;2023-02-03T18:01:41;10.86;118.99
66726;HTU21D;53638;51.062;5.804;2023-02-03T18:04:07;10.84;118.99